createdAt,value
2023-04-04T00:02:30.153Z,99366.50
2023-04-04T00:07:33.219Z,99358.81
2023-04-04T00:12:36.630Z,99356.22
2023-04-04T00:17:39.431Z,99367.41
2023-04-04T00:22:42.437Z,99364.88
2023-04-04T00:27:45.062Z,99370.03
2023-04-04T00:32:47.882Z,99374.31
2023-04-04T00:37:50.519Z,99372.56
2023-04-04T00:42:53.872Z,99375.97
2023-04-04T00:47:58.170Z,99359.66
2023-04-04T00:53:01.168Z,99361.41
2023-04-04T00:58:03.819Z,99355.41
2023-04-04T01:03:07.990Z,99350.28
2023-04-04T01:08:11.270Z,99341.75
2023-04-04T01:13:15.773Z,99328.94
2023-04-04T01:18:21.575Z,99348.69
2023-04-04T01:23:30.527Z,99346.97
2023-04-04T01:28:33.499Z,99352.97
2023-04-04T01:33:43.455Z,99357.28
2023-04-04T01:38:58.001Z,99360.72
2023-04-04T01:44:03.087Z,99360.69
2023-04-04T01:49:06.120Z,99352.09
2023-04-04T01:54:10.772Z,99356.41
2023-04-04T01:59:13.625Z,99355.59
2023-04-04T02:04:16.637Z,99353.03
2023-04-04T02:09:19.524Z,99353.91
2023-04-04T02:14:22.961Z,99353.03
2023-04-04T02:19:46.290Z,99358.16
2023-04-04T02:24:48.874Z,99344.44
2023-04-04T02:29:51.542Z,99338.44
2023-04-04T02:34:54.219Z,99341.88
2023-04-04T02:39:57.704Z,99339.31
2023-04-04T02:45:01.303Z,99339.31
2023-04-04T02:50:05.644Z,99351.31
2023-04-04T02:55:08.848Z,99347.91
2023-04-04T03:00:15.964Z,99339.31
2023-04-04T03:05:18.700Z,99332.47
2023-04-04T03:10:21.651Z,99344.47
2023-04-04T03:15:25.742Z,99337.59
2023-04-04T03:20:28.655Z,99342.75
2023-04-04T03:25:31.448Z,99345.31
2023-04-04T03:30:34.458Z,99351.34
2023-04-04T03:35:41.298Z,99358.16
2023-04-04T03:40:44.478Z,99338.47
2023-04-04T03:45:48.269Z,99362.44
2023-04-04T03:50:51.145Z,99357.31
2023-04-04T03:55:55.496Z,99351.28
2023-04-04T04:00:58.141Z,99341.88
2023-04-04T04:06:04.678Z,99355.56
2023-04-04T04:11:09.085Z,99352.16
2023-04-04T04:16:12.263Z,99348.69
2023-04-04T04:21:16.205Z,99346.09
2023-04-04T04:26:19.530Z,99359.75
2023-04-04T04:31:23.799Z,99350.22
2023-04-04T04:36:27.972Z,99353.59
2023-04-04T04:41:39.892Z,99365.41
2023-04-04T04:46:43.222Z,99355.78
2023-04-04T04:51:50.402Z,99365.03
2023-04-04T04:56:55.191Z,99367.28
2023-04-04T05:01:58.413Z,99351.66
2023-04-04T05:07:02.581Z,99337.66
2023-04-04T05:12:05.927Z,99339.41
2023-04-04T05:17:23.600Z,99322.81
2023-04-04T05:22:29.717Z,99325.38
2023-04-04T05:27:32.503Z,99339.81
2023-04-04T05:32:38.213Z,99332.06
2023-04-04T05:37:46.458Z,99338.50
2023-04-04T05:42:56.751Z,99341.16
2023-04-04T05:48:04.748Z,99347.38
2023-04-04T05:53:12.731Z,99345.56
2023-04-04T05:58:19.011Z,99325.59
2023-04-04T06:03:26.385Z,99328.72
2023-04-04T06:08:31.999Z,99340.22
2023-04-04T06:13:36.361Z,99318.81
2023-04-04T06:18:43.680Z,99328.22
2023-04-04T06:23:46.375Z,99338.31
2023-04-04T06:28:50.572Z,99332.19
2023-04-04T06:34:13.736Z,99340.41
2023-04-04T06:39:31.579Z,99334.38
2023-04-04T06:44:37.563Z,99332.66
2023-04-04T06:49:40.190Z,99335.41
2023-04-04T06:54:43.999Z,99324.22
2023-04-04T06:59:50.771Z,99330.53
2023-04-04T07:04:53.518Z,99328.44
2023-04-04T07:09:56.627Z,99329.31
2023-04-04T07:14:59.369Z,99337.28
2023-04-04T07:20:03.594Z,99335.41
2023-04-04T07:25:08.669Z,99340.63
2023-04-04T07:30:12.178Z,99335.78
2023-04-04T07:35:14.890Z,99324.91
2023-04-04T07:40:17.801Z,99332.19
2023-04-04T07:45:21.732Z,99329.72
2023-04-04T07:50:24.392Z,99320.22
2023-04-04T07:55:27.053Z,99316.03
2023-04-04T08:00:29.684Z,99318.22
2023-04-04T08:05:32.870Z,99327.38
2023-04-04T08:10:35.582Z,99336.41
2023-04-04T08:15:38.600Z,99302.13
2023-04-04T08:20:42.280Z,99330.72
2023-04-04T08:25:46.892Z,99341.53
2023-04-04T08:30:49.532Z,99332.81
2023-04-04T08:35:52.241Z,99331.97
2023-04-04T08:40:54.933Z,99335.75
2023-04-04T08:45:59.284Z,99341.53
2023-04-04T08:51:04.802Z,99295.00
2023-04-04T08:56:07.580Z,99345.53
2023-04-04T09:01:10.916Z,99345.69
2023-04-04T09:06:14.099Z,99329.81
2023-04-04T09:11:17.855Z,99335.19
2023-04-04T09:16:20.628Z,99350.78
2023-04-04T09:21:23.366Z,99364.72
2023-04-04T09:26:26.139Z,99355.44
2023-04-04T09:31:28.975Z,99317.41
2023-04-04T09:36:32.604Z,99346.91
2023-04-04T09:41:40.398Z,99342.28
2023-04-04T09:46:43.227Z,99342.19
2023-04-04T09:51:50.129Z,99352.38
2023-04-04T09:56:52.797Z,99345.91
2023-04-04T10:01:55.942Z,99350.22
2023-04-04T10:07:00.139Z,99353.75
2023-04-04T10:12:10.047Z,99345.53
2023-04-04T10:17:13.625Z,99349.47
2023-04-04T10:22:17.232Z,99344.59
2023-04-04T10:27:21.224Z,99354.25
2023-04-04T10:33:05.658Z,99356.69
2023-04-04T10:38:08.805Z,99371.25
2023-04-04T10:43:12.306Z,99367.13
2023-04-04T10:48:15.516Z,99364.66
2023-04-04T10:53:18.598Z,99366.75
2023-04-04T10:58:22.760Z,99370.59
2023-04-04T11:03:25.714Z,99365.19
2023-04-04T11:08:28.775Z,99358.59
2023-04-04T11:13:39.949Z,99356.94
2023-04-04T11:18:42.493Z,99363.34
2023-04-04T11:23:48.252Z,99367.72
2023-04-04T11:28:51.159Z,99364.97
2023-04-04T11:34:11.422Z,99361.41
2023-04-04T11:39:24.761Z,99353.72
2023-04-04T11:44:31.569Z,99314.53
2023-04-04T11:49:36.989Z,99346.94
2023-04-04T11:54:40.968Z,99375.78
2023-04-04T11:59:46.753Z,99354.13
2023-04-04T12:04:52.089Z,99370.59
2023-04-04T12:09:57.056Z,99366.88
2023-04-04T12:15:14.557Z,99379.16
2023-04-04T12:20:23.945Z,99387.47
2023-04-04T12:25:28.614Z,99383.66
2023-04-04T12:30:32.344Z,99380.50
2023-04-04T12:35:34.988Z,99394.09
2023-04-04T12:40:39.220Z,99402.03
2023-04-04T12:45:43.933Z,99404.94
2023-04-04T12:50:54.746Z,99407.25
2023-04-04T12:56:04.896Z,99407.41
2023-04-04T13:01:08.493Z,99411.75
2023-04-04T13:06:13.073Z,99415.50
2023-04-04T13:11:15.715Z,99426.84
2023-04-04T13:16:33.123Z,99418.50
2023-04-04T13:21:35.813Z,99430.25
2023-04-04T13:26:38.421Z,99432.28
2023-04-04T13:31:41.878Z,99435.03
2023-04-04T13:36:45.066Z,99442.03
2023-04-04T13:41:47.712Z,99441.19
2023-04-04T13:46:50.364Z,99445.72
2023-04-04T13:51:53.094Z,99446.69
2023-04-04T13:56:56.594Z,99450.25
2023-04-04T14:01:59.270Z,99432.16
2023-04-04T14:07:02.094Z,99442.50
2023-04-04T14:12:04.915Z,99445.56
2023-04-04T14:17:07.767Z,99437.50
2023-04-04T14:22:10.591Z,99441.72
2023-04-04T14:27:13.474Z,99453.09
2023-04-04T14:32:16.347Z,99431.22
2023-04-04T14:37:19.010Z,99441.22
2023-04-04T14:42:21.755Z,99466.66
2023-04-04T14:47:24.517Z,99491.38
2023-04-04T14:52:28.887Z,99475.25
2023-04-04T14:57:32.208Z,99485.44
2023-04-04T15:02:38.344Z,99483.91
2023-04-04T15:07:41.344Z,99491.16
2023-04-04T15:12:44.531Z,99484.50
2023-04-04T15:17:47.186Z,99478.47
2023-04-04T15:22:49.932Z,99449.59
2023-04-04T15:27:52.475Z,99482.25
2023-04-04T15:32:58.162Z,99482.47
2023-04-04T15:38:01.090Z,99486.91
2023-04-04T15:43:03.749Z,99494.72
2023-04-04T15:48:06.496Z,99501.78
2023-04-04T15:53:09.135Z,99507.78
2023-04-04T15:58:11.836Z,99514.78
2023-04-04T16:03:14.863Z,99512.34
2023-04-04T16:08:18.275Z,99509.19
2023-04-04T16:13:20.915Z,99525.50
2023-04-04T16:18:23.501Z,99539.53
2023-04-04T16:23:26.199Z,99544.81
2023-04-04T16:28:28.969Z,99549.25
2023-04-04T16:33:31.887Z,99551.09
2023-04-04T16:38:34.628Z,99566.63
2023-04-04T16:43:37.307Z,99574.47
2023-04-04T16:48:39.956Z,99567.72
2023-04-04T16:53:42.505Z,99574.78
2023-04-04T16:58:46.192Z,99550.06
2023-04-04T17:03:49.476Z,99577.59
2023-04-04T17:08:52.321Z,99549.25
2023-04-04T17:13:55.615Z,99576.84
2023-04-04T17:18:58.140Z,99582.16
2023-04-04T17:24:00.841Z,99579.47
2023-04-04T17:29:03.499Z,99578.56
2023-04-04T17:34:06.950Z,99546.97
2023-04-04T17:39:09.758Z,99570.78
2023-04-04T17:44:12.508Z,99566.44
2023-04-04T17:49:20.130Z,99585.63
2023-04-04T17:54:23.281Z,99578.84
2023-04-04T17:59:26.093Z,99588.31
2023-04-04T18:04:29.325Z,99582.28
2023-04-04T18:09:32.073Z,99585.03
2023-04-04T18:14:34.830Z,99586.91
2023-04-04T18:19:39.079Z,99574.16
2023-04-04T18:24:42.998Z,99583.91
2023-04-04T18:29:45.658Z,99581.44
2023-04-04T18:34:48.518Z,99585.03
2023-04-04T18:39:51.303Z,99586.06
2023-04-04T18:44:53.922Z,99545.94
2023-04-04T18:49:57.504Z,99589.81
2023-04-04T18:55:00.278Z,99581.47
2023-04-04T19:00:03.650Z,99590.16
2023-04-04T19:05:07.350Z,99592.75
2023-04-04T19:10:10.109Z,99598.81
2023-04-04T19:15:12.855Z,99604.94
2023-04-04T19:20:15.646Z,99611.00
2023-04-04T19:25:19.002Z,99613.66
2023-04-04T19:30:43.787Z,99601.59
2023-04-04T19:35:58.965Z,99616.25
2023-04-04T19:41:03.610Z,99625.72
2023-04-04T19:46:11.877Z,99630.91
2023-04-04T19:51:17.352Z,99629.19
2023-04-04T19:56:21.697Z,99631.84
2023-04-04T20:01:28.050Z,99625.84
2023-04-04T20:06:31.815Z,99614.72
2023-04-04T20:11:36.618Z,99618.19
2023-04-04T20:16:39.295Z,99622.53
2023-04-04T20:21:42.139Z,99635.44
2023-04-04T20:26:52.550Z,99644.06
2023-04-04T20:32:08.726Z,99629.44
2023-04-04T20:37:23.747Z,99636.34
2023-04-04T20:42:26.286Z,99634.66
2023-04-04T20:47:42.792Z,99635.53
2023-04-04T20:52:52.384Z,99607.19
2023-04-04T20:57:59.170Z,99636.41
2023-04-04T21:03:10.130Z,99641.59
2023-04-04T21:08:22.293Z,99647.63
2023-04-04T21:13:34.328Z,99647.63
2023-04-04T21:18:37.266Z,99650.19
2023-04-04T21:23:39.671Z,99647.59
2023-04-04T21:28:46.189Z,99646.75
2023-04-04T21:33:51.179Z,99626.97
2023-04-04T21:38:56.182Z,99653.63
2023-04-04T21:44:00.906Z,99633.84
2023-04-04T21:49:05.259Z,99652.78
2023-04-04T21:54:08.183Z,99663.94
2023-04-04T21:59:10.849Z,99669.94
2023-04-04T22:04:13.581Z,99658.78
2023-04-04T22:09:16.373Z,99661.34
2023-04-04T22:14:18.913Z,99664.72
2023-04-04T22:19:23.600Z,99664.72
2023-04-04T22:24:26.848Z,99676.72
2023-04-04T22:29:29.616Z,99668.13
2023-04-04T22:34:32.404Z,99680.09
2023-04-04T22:39:35.043Z,99687.78
2023-04-04T22:44:37.821Z,99693.72
2023-04-04T22:49:48.563Z,99659.25
2023-04-04T22:54:51.130Z,99699.66
2023-04-04T22:59:53.721Z,99691.00
2023-04-04T23:04:58.681Z,99701.34
2023-04-04T23:10:01.431Z,99665.16
2023-04-04T23:15:07.139Z,99695.22
2023-04-04T23:20:10.121Z,99717.47
2023-04-04T23:25:12.799Z,99713.16
2023-04-04T23:30:15.561Z,99696.00
2023-04-04T23:35:18.131Z,99707.13
2023-04-04T23:40:21.141Z,99704.47
2023-04-04T23:45:24.775Z,99700.84
2023-04-04T23:50:27.436Z,99713.66
2023-04-04T23:55:30.206Z,99712.72
